• Join FlightAware (Why Join?)
  • Login
  • US Flag 
12:41PM EDT


 

Airport Tracker/Info


-or-


 

Live Flight TrackerFlight Track Log ✈ SKW6538 ✈ 05-May-2013 ✈ KDEN - KIDA

Flight Track Log - Related Links

Times and Time Zones

All times are in EDT time to prevent confusion due to time zone crossing. See the SKW6538 flight status page for this flight to view local times or setup timezone preferences in your user account.

Time Position Orientation Groundspeed Altitude Reporting Facility
EDT Latitude Longitude Course Direction KTS MPH feet Rate Location/Type
12:00AM 39.8833 -104.5500 348° North 214 246 7,300  Level Denver TRACON
12:01AM 39.9000 -104.4667 75° East 273 314 9,200 1,560 Climbing Denver TRACON
12:02AM 39.9667 -104.4333 21° North 307 353 10,300 1,620 Climbing Denver TRACON
12:03AM 40.2820 -104.8063 347° North  Level FlightAware Approximate
12:03AM 40.0667 -104.4833 339° North 336 387 12,500  Level Denver TRACON
12:04AM 40.3902 -104.8412 346° North  Level FlightAware Approximate
12:05AM 40.4982 -104.8772 346° North  Level FlightAware Approximate
12:05AM 40.2081 -104.5503 340° North 329 379 15,900  Level Denver Center
12:06AM 40.6070 -104.9091 348° North  Level FlightAware Approximate
12:06AM 40.3225 -104.6089 339° North 358 412 17,600  Level Denver Center
12:07AM 40.4169 -104.6578 338° Northwest 366 421 18,800 1,200 Climbing Denver Center
12:08AM 40.5206 -104.7114 339° North 373 429 20,100 1,140 Climbing Denver Center
12:09AM 40.6186 -104.7631 338° Northwest 389 448 21,200 1,020 Climbing Denver Center
12:10AM 40.7189 -104.8169 338° Northwest 392 451 22,200 900 Climbing Denver Center
12:11AM 40.8194 -104.8739 337° Northwest 382 440 23,100 780 Climbing Denver Center
12:13AM 40.8778 -104.9994 302° West 393 452 24,000 360 Climbing Denver Center
12:14AM 40.9428 -105.1539 299° West 405 466 24,000  Level Denver Center
12:15AM 41.0000 -105.2908 299° West 420 483 24,000 300 Level Denver Center
12:16AM 41.0622 -105.4394 299° West 429 494 24,700 780 Climbing Denver Center
12:17AM 41.1147 -105.5667 299° West 416 479 25,700 600 Climbing Denver Center
12:18AM 41.1753 -105.7128 299° West 406 467 26,000 120 Climbing Denver Center
12:19AM 41.2281 -105.8422 298° West 414 476 26,000  Level Denver Center
12:20AM 41.2828 -105.9753 299° West 425 489 26,000 360 Level Denver Center
12:21AM 41.3464 -106.1317 298° West 430 495 26,800 780 Climbing Denver Center
12:22AM 41.3997 -106.2636 298° West 424 488 27,700 900 Climbing Denver Center
12:23AM 41.4522 -106.3917 299° West 414 476 28,700 1,020 Climbing Denver Center
12:24AM 41.5069 -106.5294 298° West 401 461 29,800 960 Climbing Denver Center
12:25AM 41.5561 -106.6511 298° West 393 452 30,700 780 Climbing Denver Center
12:26AM 41.6106 -106.7897 298° West 381 438 31,500 600 Climbing Denver Center
12:27AM 41.6581 -106.9075 298° West 378 435 32,000 240 Climbing Denver Center
12:28AM 41.7119 -107.0478 297° West 381 438 32,000  Level Denver Center
12:29AM 41.7611 -107.1708 298° West 389 448 32,000  Level Denver Center
12:30AM 41.8097 -107.2936 298° West 388 447 32,000  Level Denver Center
12:31AM 41.8650 -107.4350 298° West 385 443 32,000  Level Denver Center
12:32AM 41.9128 -107.5575 298° West 388 447 32,000  Level Denver Center
12:33AM 41.9658 -107.6975 297° West 380 437 32,000  Level Denver Center
12:33AM 41.9806 -107.7392 295° West 380 437 32,000  Level Salt Lake Center
12:34AM 42.0272 -107.8600 298° West 381 438 32,000  Level Salt Lake Center
12:35AM 42.0733 -107.9803 297° West 379 436 32,000  Level Salt Lake Center
12:36AM 42.1286 -108.1236 298° West 387 445 32,000  Level Salt Lake Center
12:37AM 42.1733 -108.2453 296° West 383 441 32,000  Level Salt Lake Center
12:38AM 42.2267 -108.3856 297° West 380 437 32,000  Level Salt Lake Center
12:39AM 42.2731 -108.5086 297° West 385 443 32,000  Level Salt Lake Center
12:40AM 42.3183 -108.6311 297° West 383 441 32,000  Level Salt Lake Center
12:41AM 42.3711 -108.7756 296° West 385 443 32,000  Level Salt Lake Center
12:42AM 42.4164 -108.8992 296° West 384 442 32,000  Level Salt Lake Center
12:43AM 42.4628 -109.0233 297° West 387 445 32,000  Level Salt Lake Center
12:44AM 42.5153 -109.1703 296° West 389 448 32,000  Level Salt Lake Center
12:45AM 42.5606 -109.2942 296° West 388 447 32,000  Level Salt Lake Center
12:46AM 42.6136 -109.4408 296° West 389 448 32,000  Level Salt Lake Center
12:47AM 42.6586 -109.5656 296° West 387 445 32,000  Level Salt Lake Center
12:48AM 42.7042 -109.6908 296° West 387 445 32,000  Level Salt Lake Center
12:49AM 42.7572 -109.8400 296° West 393 452 32,000  Level Salt Lake Center
12:50AM 42.8014 -109.9661 296° West 395 455 32,000  Level Salt Lake Center
12:52AM 42.8544 -110.1167 296° West 395 455 32,000  Level Salt Lake Center
12:53AM 42.9011 -110.2467 296° West 393 452 32,000  Level Salt Lake Center
12:54AM 42.9458 -110.3769 295° West 396 456 32,000 -60 Level Salt Lake Center
12:55AM 42.9983 -110.5256 296° West 396 456 31,900 -1,260 Descending Salt Lake Center
12:56AM 43.0464 -110.6608 296° West 408 470 29,500 -2,400 Descending Salt Lake Center
12:57AM 43.0953 -110.8031 295° West 426 490 27,100 -2,580 Descending Salt Lake Center
12:58AM 43.1528 -110.9697 295° West 432 497 24,300 -2,580 Descending Salt Lake Center
12:59AM 43.2011 -111.1103 295° West 429 494 21,900 -2,640 Descending Salt Lake Center
01:00AM 43.2531 -111.2625 295° West 406 467 19,000 -2,580 Descending Salt Lake Center
01:01AM 43.2958 -111.3931 294° West 394 453 16,700 -2,340 Descending Salt Lake Center
01:02AM 43.3375 -111.5131 296° West 382 440 14,300 -1,860 Descending Salt Lake Center
01:03AM 43.3772 -111.6300 295° West 368 423 13,000 -720 Descending Salt Lake Center
01:04AM 43.4206 -111.7628 294° West 351 404 12,900 -1,020 Descending Salt Lake Center
01:05AM 43.4553 -111.8606 296° West 322 371 11,000 -1,920 Descending Salt Lake Center
01:06AM 43.4858 -111.9606 293° West 309 356 9,100 -1,740 Descending Salt Lake Center
01:07AM 43.4294 -112.0433 227° Southwest 289 333 7,600 -900 Descending Salt Lake Center
01:08AM 43.3833 -112.0914 217° Southwest 244 281 7,300 -300 Descending Salt Lake Center
01:09AM 43.4061 -112.1533 297° West 216 249 7,000 -600 Descending Salt Lake Center
01:10AM 43.4539 -112.1372 14° North 182 209 6,200 -900 Descending Salt Lake Center
01:11AM 43.4872 -112.1028 37° Northeast 163 188 5,300 -780 Descending Salt Lake Center
01:12AM 43.5167 -112.0708 38° Northeast 151 174 4,700 -600 Descending Salt Lake Center